Hauptseite
METAR-TAF:

METAR-TAF

Flughäfen :

Oxford, England

London Oxford Airport

Breite: 51-50-13N, Länge: 1-19-12W, Höhe: 82 m

Beobachtung

Neuester Wetterbericht von vor 36 Minuten, um 09:20 UTC
Wind 4 kt aus Süd/Südwest, variierte zwischen Südost und West
Temperatur 20°C
Luftfeuchtigkeit 60%
Luftdruck 1023 hPa
Sichtweite 10 km oder mehr
keine Wolken unter 1500 m und keine Kumulonimbus oder Gewitterwolken

METAR: EGTK 190920Z 20004KT 140V270 CAVOK 20/12 Q1023

Zeit: 10:56 (09:56 UTC)

Prognose

Neuester Wetterbericht von vor 1 Stunde und 53 Minuten, um 08:03 UTC
Gültige Prognose vom 19 um 09 UTC bis 19 um 18 UTC
Wind 4 kt aus Südwest
Sichtweite 10 km oder mehr
keine Wolken unter 1500 m und keine Kumulonimbus oder Gewitterwolken

TAF: EGTK 190803Z 1909/1918 23004KT CAVOK

Wetterbeobachtungen und Prognosen von mehr als 4000 Flughäfen (METAR und TAF Bericht).

Die verfügbaren Stationen werden durch gelbe und rote Markierungen auf der Karte dargestellt.

Führen Sie die Maus auf sie, um den Namen der Station zu sehen.

Darauf klicken, um die Beobachtung von Wetterbeobachtungen und Prognosen zu sehen.

Um die Karte zu ändern : klicken Sie auf den grünen Tasten mit einem schwarzen Kreuz Zum Vergrößern, auf den grünen Button mit einem Gedankenstrich zu verkleinern, oder auf die grünen Pfeile für benachbarte Karten.


METAR-TAF: